TAF KAUW
AMD KAUW 280802Z 2808/2906 28011G19KT P6SM BKN025 FM281200 30013G20KT P6SM SCT025 BKN040 FM281600 31013G20KT P6SM SCT040 FM282300 28005KT P6SM SKC=
METAR KAUW
WC KAUW
WS KAUW
WV KAUW